Time;durP1;ratioP1;P1;durP2;ratioP2;P2;SDS_P1;SDS_P2;PMS_P1;PMS_P2;Temp;Humidity;BMP_temperature;BMP_pressure;BME280_temperature;BME280_humidity;BME280_pressure;Samples;Min_cycle;Max_cycle;Signal;HPM_P1;HPM_P2
2023/04/03 00:02:17;;;;;;;;;;;-0.10;99.90;;;;;;5088530;28;20165;-87
2023/04/03 00:04:42;;;;;;;0.80;0.80;;;0.60;99.90;;;;;;5107479;28;19923;-88
2023/04/03 00:07:08;;;;;;;0.80;0.80;;;0.00;99.90;;;;;;5106765;28;20397;-87
2023/04/03 00:09:34;;;;;;;0.90;0.90;;;0.00;99.90;;;;;;5090406;28;20046;-87
2023/04/03 00:12:00;;;;;;;0.80;0.80;;;0.10;99.90;;;;;;5084672;28;20472;-86
2023/04/03 00:14:25;;;;;;;;;;;1.00;99.90;;;;;;5091708;28;20040;-87
2023/04/03 00:16:51;;;;;;;0.77;0.77;;;0.20;99.90;;;;;;5099926;28;19919;-88
2023/04/03 00:19:16;;;;;;;1.10;1.10;;;0.30;99.90;;;;;;5107438;28;20070;-87
2023/04/03 00:21:42;;;;;;;0.80;0.80;;;0.30;99.90;;;;;;5091929;28;20122;-87
2023/04/03 00:24:08;;;;;;;0.70;0.70;;;0.30;99.90;;;;;;5107617;28;20060;-87
2023/04/03 00:26:33;;;;;;;0.70;0.70;;;0.40;99.90;;;;;;5106287;28;20073;-86
2023/04/03 00:28:59;;;;;;;0.80;0.80;;;0.40;99.90;;;;;;5107604;28;20039;-86
2023/04/03 00:31:25;;;;;;;0.60;0.60;;;0.40;99.90;;;;;;5092525;28;20043;-84
2023/04/03 00:33:50;;;;;;;0.80;0.80;;;0.70;99.90;;;;;;5091357;28;20400;-85
2023/04/03 00:36:16;;;;;;;;;;;0.40;99.90;;;;;;5111513;28;20043;-84
2023/04/03 00:38:42;;;;;;;0.70;0.70;;;0.40;99.90;;;;;;5110686;28;20350;-85
2023/04/03 00:41:08;;;;;;;0.77;0.77;;;0.30;99.90;;;;;;5108839;28;20036;-85
2023/04/03 00:43:33;;;;;;;0.80;0.80;;;0.30;99.90;;;;;;5092136;28;20062;-87
2023/04/03 00:46:00;;;;;;;0.80;0.80;;;0.30;99.90;;;;;;5093741;28;20043;-85
2023/04/03 00:48:40;;;;;;;0.70;0.70;;;0.20;99.90;;;;;;5101414;28;20565;-86
2023/04/03 00:51:09;;;;;;;0.75;0.75;;;0.20;99.90;;;;;;5105594;28;20054;-85
2023/04/03 00:53:44;;;;;;;0.80;0.80;;;0.20;99.90;;;;;;5091624;28;20031;-84
2023/04/03 00:56:13;;;;;;;0.70;0.70;;;0.10;99.90;;;;;;5127824;27;20032;-87
2023/04/03 00:58:47;;;;;;;0.70;0.70;;;0.10;99.90;;;;;;5108882;28;20036;-88
2023/04/03 01:01:16;;;;;;;0.80;0.80;;;0.00;99.90;;;;;;5107836;28;20040;-85
2023/04/03 01:03:42;;;;;;;0.80;0.80;;;0.00;99.90;;;;;;5112438;28;20449;-86
2023/04/03 01:06:08;;;;;;;0.80;0.80;;;0.00;99.90;;;;;;5110681;28;20036;-87
2023/04/03 01:08:35;;;;;;;0.90;0.90;;;0.00;99.90;;;;;;5090712;28;20118;-87
2023/04/03 01:11:01;;;;;;;1.00;1.00;;;0.00;99.90;;;;;;5111444;28;20055;-88
2023/04/03 01:13:30;;;;;;;0.90;0.90;;;0.50;99.90;;;;;;5092468;28;20087;-86
2023/04/03 01:16:00;;;;;;;0.70;0.70;;;0.00;99.90;;;;;;5107896;28;20483;-86
2023/04/03 01:18:26;;;;;;;0.80;0.80;;;0.00;99.90;;;;;;5092021;28;20825;-86
2023/04/03 01:20:55;;;;;;;0.60;0.60;;;0.00;99.90;;;;;;5093415;28;20047;-88
2023/04/03 01:23:30;;;;;;;0.60;0.60;;;0.00;99.90;;;;;;5107999;28;20512;-88
2023/04/03 01:25:56;;;;;;;0.70;0.70;;;0.00;99.90;;;;;;5110259;28;20529;-86
2023/04/03 01:28:32;;;;;;;0.60;0.60;;;0.00;99.90;;;;;;5109086;28;20043;-88
2023/04/03 01:31:20;;;;;;;0.80;0.80;;;-0.10;99.90;;;;;;5109975;28;20043;-86
2023/04/03 01:33:45;;;;;;;0.80;0.80;;;-0.10;99.90;;;;;;5115098;28;20075;-86
2023/04/03 01:36:19;;;;;;;0.80;0.80;;;-0.10;99.90;;;;;;5111093;28;20135;-88
2023/04/03 01:38:45;;;;;;;0.70;0.70;;;-0.10;99.90;;;;;;5087802;28;20043;-86
2023/04/03 01:41:10;;;;;;;0.70;0.70;;;-0.10;99.90;;;;;;5109757;28;20036;-88
2023/04/03 01:43:36;;;;;;;0.70;0.70;;;-0.10;99.90;;;;;;5108193;28;20159;-86
2023/04/03 01:46:02;;;;;;;0.70;0.70;;;-0.10;99.90;;;;;;5074775;28;20076;-85
2023/04/03 01:48:27;;;;;;;;;;;-0.10;99.90;;;;;;5104323;28;20040;-86
2023/04/03 01:50:54;;;;;;;0.80;0.80;;;-0.10;99.90;;;;;;5091078;28;19996;-85
2023/04/03 01:53:20;;;;;;;0.70;0.70;;;-0.20;99.90;;;;;;5090101;28;20051;-85
2023/04/03 01:55:45;;;;;;;0.60;0.60;;;0.70;99.90;;;;;;5106288;28;20039;-85
2023/04/03 01:58:11;;;;;;;0.82;0.82;;;-0.30;99.90;;;;;;5072090;28;20086;-86
2023/04/03 02:00:37;;;;;;;0.80;0.80;;;-0.30;99.90;;;;;;5109460;28;20053;-85
2023/04/03 02:03:03;;;;;;;;;;;1.10;99.90;;;;;;5096040;28;20039;-86
2023/04/03 02:05:29;;;;;;;0.70;0.70;;;0.60;99.90;;;;;;5090240;28;19920;-86
2023/04/03 02:07:55;;;;;;;0.73;0.73;;;-0.40;99.90;;;;;;5071750;28;20048;-86
2023/04/03 02:10:20;;;;;;;0.60;0.60;;;-0.50;99.90;;;;;;5092364;28;20488;-86
2023/04/03 02:12:46;;;;;;;;;;;-0.50;99.90;;;;;;5083818;28;20113;-86
2023/04/03 02:15:12;;;;;;;0.90;0.90;;;-0.50;99.90;;;;;;5105586;28;19919;-87
2023/04/03 02:17:37;;;;;;;0.70;0.70;;;-0.60;99.90;;;;;;5109939;28;20044;-85
2023/04/03 02:20:04;;;;;;;1.20;1.20;;;-0.60;99.90;;;;;;5108488;28;20377;-85
2023/04/03 02:22:30;;;;;;;0.80;0.80;;;-0.70;99.90;;;;;;5074244;28;20053;-85
2023/04/03 02:24:56;;;;;;;0.77;0.77;;;-0.70;99.90;;;;;;5089420;28;20052;-87
2023/04/03 02:27:21;;;;;;;0.80;0.80;;;-0.80;99.90;;;;;;5105056;28;20042;-86
2023/04/03 02:29:47;;;;;;;;;;;-0.80;99.90;;;;;;5109185;28;20557;-86
2023/04/03 02:32:14;;;;;;;0.70;0.70;;;-0.80;99.90;;;;;;5086928;28;19919;-87
2023/04/03 02:34:39;;;;;;;0.80;0.80;;;-0.90;99.90;;;;;;5107061;28;20036;-86
2023/04/03 02:37:06;;;;;;;0.70;0.70;;;-0.90;99.90;;;;;;5073897;28;20400;-86
2023/04/03 02:39:32;;;;;;;;;;;-0.90;99.90;;;;;;5121683;27;20108;-87
2023/04/03 02:41:58;;;;;;;0.70;0.70;;;-1.00;99.90;;;;;;5089256;28;19974;-85
2023/04/03 02:44:24;;;;;;;0.68;0.68;;;-1.00;99.90;;;;;;5104717;28;20075;-85
2023/04/03 02:46:50;;;;;;;0.50;0.50;;;-1.00;99.90;;;;;;5106680;28;20079;-86
2023/04/03 02:49:16;;;;;;;0.82;0.82;;;-1.10;99.90;;;;;;5090678;28;20472;-85
2023/04/03 02:51:41;;;;;;;0.77;0.77;;;-1.10;99.90;;;;;;5092059;28;20078;-86
2023/04/03 02:54:07;;;;;;;0.98;0.98;;;-1.10;99.90;;;;;;5092281;28;20051;-84
2023/04/03 02:56:33;;;;;;;0.70;0.70;;;-1.20;99.90;;;;;;5103543;28;20428;-87
2023/04/03 02:58:59;;;;;;;0.80;0.80;;;-1.20;99.90;;;;;;5090705;28;20072;-86
2023/04/03 03:01:28;;;;;;;0.80;0.80;;;-0.60;99.90;;;;;;5107263;28;20055;-86
2023/04/03 03:03:54;;;;;;;0.80;0.80;;;-1.30;99.90;;;;;;5108873;28;20044;-84
2023/04/03 03:06:19;;;;;;;0.80;0.80;;;-1.40;99.90;;;;;;5100755;28;20055;-88
2023/04/03 03:08:45;;;;;;;0.85;0.85;;;-1.40;99.90;;;;;;5083151;28;20036;-85
2023/04/03 03:11:17;;;;;;;0.90;0.90;;;-1.50;99.90;;;;;;5101859;28;20068;-86
2023/04/03 03:13:43;;;;;;;0.80;0.80;;;-1.50;99.90;;;;;;5101373;28;20055;-85
2023/04/03 03:16:09;;;;;;;0.90;0.90;;;-1.50;99.90;;;;;;5103636;28;20492;-85
2023/04/03 03:18:35;;;;;;;;;;;-1.60;99.90;;;;;;5106523;28;20058;-84
2023/04/03 03:21:02;;;;;;;0.80;0.80;;;-1.70;99.90;;;;;;5104483;28;20010;-86
2023/04/03 03:23:29;;;;;;;0.70;0.70;;;-1.70;99.90;;;;;;5106563;28;20084;-85
2023/04/03 03:25:57;;;;;;;0.70;0.70;;;-1.80;99.90;;;;;;5107276;28;20118;-86
2023/04/03 03:28:23;;;;;;;0.90;0.90;;;-1.90;99.90;;;;;;5088497;28;20043;-86
2023/04/03 03:30:49;;;;;;;1.00;1.00;;;-1.90;99.90;;;;;;5107405;28;20046;-84
2023/04/03 03:33:15;;;;;;;0.80;0.80;;;-2.00;99.90;;;;;;5121138;28;20039;-87
2023/04/03 03:35:41;;;;;;;0.80;0.80;;;-2.00;99.90;;;;;;5091928;28;20036;-87
2023/04/03 03:38:07;;;;;;;0.77;0.77;;;-2.00;99.90;;;;;;5106481;28;20125;-87
2023/04/03 03:40:32;;;;;;;;;;;-2.00;99.90;;;;;;5109311;28;20047;-87
2023/04/03 03:42:58;;;;;;;0.77;0.77;;;-2.00;99.90;;;;;;5107988;28;20364;-88
2023/04/03 03:45:25;;;;;;;0.90;0.90;;;-2.10;99.90;;;;;;5102875;28;20056;-87
2023/04/03 03:47:50;;;;;;;;;;;-2.10;99.90;;;;;;5091083;28;20040;-87
2023/04/03 03:50:16;;;;;;;0.88;0.88;;;-1.70;99.90;;;;;;5090909;28;19926;-87
2023/04/03 03:52:41;;;;;;;;;;;-2.10;99.90;;;;;;5104100;28;20079;-87
2023/04/03 03:55:07;;;;;;;0.90;0.90;;;-2.00;99.90;;;;;;5105819;28;19923;-87
2023/04/03 03:57:33;;;;;;;;;;;-2.20;99.90;;;;;;5107126;28;20036;-86
2023/04/03 03:59:59;;;;;;;0.60;0.60;;;-2.20;99.90;;;;;;5110451;28;19929;-86
2023/04/03 04:02:25;;;;;;;0.90;0.90;;;-2.20;99.90;;;;;;5093454;28;20046;-85
2023/04/03 04:04:50;;;;;;;;;;;-2.20;99.90;;;;;;5111518;28;20366;-87
2023/04/03 04:07:16;;;;;;;0.90;0.90;;;-2.20;99.90;;;;;;5087759;28;19916;-86
2023/04/03 04:09:42;;;;;;;;;;;-2.20;99.90;;;;;;5093673;28;20130;-86
2023/04/03 04:12:07;;;;;;;0.70;0.70;;;-2.20;99.90;;;;;;5113295;28;19926;-85
2023/04/03 04:14:33;;;;;;;;;;;-2.20;99.90;;;;;;5094299;28;20047;-86
2023/04/03 04:16:58;;;;;;;0.80;0.80;;;-2.20;99.90;;;;;;5108387;28;19964;-86
2023/04/03 04:19:24;;;;;;;0.90;0.90;;;-2.30;99.90;;;;;;5109108;28;20044;-86
2023/04/03 04:21:50;;;;;;;;;;;-2.30;99.90;;;;;;5078224;28;20044;-85
2023/04/03 04:24:16;;;;;;;0.82;0.82;;;-2.30;99.90;;;;;;5108471;28;19923;-85
2023/04/03 04:26:41;;;;;;;;;;;-2.40;99.90;;;;;;5113684;28;20036;-85
2023/04/03 04:29:09;;;;;;;0.88;0.88;;;-1.60;99.90;;;;;;5111177;28;19942;-85
2023/04/03 04:31:35;;;;;;;0.70;0.70;;;-2.40;99.90;;;;;;5089668;28;20488;-86
2023/04/03 04:34:01;;;;;;;;;;;-2.40;99.90;;;;;;5108309;28;20046;-85
2023/04/03 04:36:27;;;;;;;0.70;0.70;;;-2.40;99.90;;;;;;5108720;28;19945;-84
2023/04/03 04:38:53;;;;;;;0.90;0.90;;;-2.40;99.90;;;;;;5109456;28;20061;-85
2023/04/03 04:41:22;;;;;;;0.70;0.70;;;-2.30;99.90;;;;;;5102618;28;20039;-84
2023/04/03 04:43:49;;;;;;;0.80;0.80;;;-2.30;99.90;;;;;;5108677;28;20123;-85
2023/04/03 04:46:15;;;;;;;0.73;0.73;;;-2.30;99.90;;;;;;5102922;28;20119;-86
2023/04/03 04:48:41;;;;;;;;;;;-2.30;99.90;;;;;;5106374;28;20092;-86
2023/04/03 04:51:07;;;;;;;0.70;0.70;;;-2.30;99.90;;;;;;5100994;28;19927;-84
2023/04/03 04:53:33;;;;;;;0.70;0.70;;;-2.30;99.90;;;;;;5093610;28;20044;-86
2023/04/03 04:55:59;;;;;;;0.90;0.90;;;-2.30;99.90;;;;;;5110579;28;20050;-85
2023/04/03 04:58:25;;;;;;;;;;;-2.30;99.90;;;;;;5110586;28;20393;-85
2023/04/03 05:01:08;;;;;;;0.70;0.70;;;-2.20;99.90;;;;;;5107025;28;19999;-86
2023/04/03 05:03:34;;;;;;;0.90;0.90;;;-2.30;99.90;;;;;;5100419;28;20051;-85
2023/04/03 05:06:00;;;;;;;;;;;-2.20;99.90;;;;;;5113420;28;20038;-84
2023/04/03 05:08:26;;;;;;;0.80;0.80;;;-2.30;99.90;;;;;;5110819;28;19939;-85
2023/04/03 05:10:53;;;;;;;0.80;0.80;;;-2.20;99.90;;;;;;5104428;28;20559;-86
2023/04/03 05:13:19;;;;;;;0.77;0.77;;;-2.30;99.90;;;;;;5108564;28;20091;-85
2023/04/03 05:15:45;;;;;;;0.80;0.80;;;-2.30;99.90;;;;;;5108741;28;20126;-84
2023/04/03 05:18:11;;;;;;;0.80;0.80;;;-2.30;99.90;;;;;;5108989;28;20481;-86
2023/04/03 05:20:36;;;;;;;;;;;-2.30;99.90;;;;;;5089365;28;20040;-85
2023/04/03 05:23:02;;;;;;;0.70;0.70;;;-2.30;99.90;;;;;;5090010;28;19945;-84
2023/04/03 05:25:28;;;;;;;;;;;-2.30;99.90;;;;;;5109138;28;20396;-84
2023/04/03 05:27:54;;;;;;;0.80;0.80;;;-2.20;99.90;;;;;;5104759;28;19962;-85
2023/04/03 05:30:20;;;;;;;0.82;0.82;;;-2.30;99.90;;;;;;5122181;28;20095;-84
2023/04/03 05:32:46;;;;;;;0.90;0.90;;;-2.30;99.90;;;;;;5097819;28;20043;-88
2023/04/03 05:35:12;;;;;;;0.70;0.70;;;-2.30;99.90;;;;;;5093961;28;20374;-85
2023/04/03 05:37:37;;;;;;;0.70;0.70;;;-2.30;99.90;;;;;;5101304;28;20583;-84
2023/04/03 05:40:04;;;;;;;;;;;-2.20;99.90;;;;;;5107006;28;20134;-85
2023/04/03 05:42:29;;;;;;;0.77;0.77;;;-2.20;99.90;;;;;;5101904;28;19931;-83
2023/04/03 05:44:55;;;;;;;;;;;-1.60;99.90;;;;;;5110312;28;20053;-85
2023/04/03 05:47:21;;;;;;;0.82;0.82;;;-2.10;99.90;;;;;;5092231;28;19939;-87
2023/04/03 05:49:46;;;;;;;;;;;-2.10;99.90;;;;;;5074198;28;20051;-85
2023/04/03 05:52:21;;;;;;;0.80;0.80;;;-2.00;99.90;;;;;;5109047;28;19919;-84
2023/04/03 05:54:48;;;;;;;0.80;0.80;;;-2.00;99.90;;;;;;5107267;28;20044;-84
2023/04/03 05:57:15;;;;;;;0.90;0.90;;;-1.80;99.90;;;;;;5109509;28;20436;-85
2023/04/03 05:59:45;;;;;;;0.63;0.63;;;-1.90;99.90;;;;;;5090288;28;20046;-84
2023/04/03 06:02:13;;;;;;;0.63;0.63;;;-1.70;99.90;;;;;;5105913;28;20066;-84
2023/04/03 06:04:39;;;;;;;0.63;0.63;;;-1.70;99.90;;;;;;5107253;28;20034;-85
2023/04/03 06:07:05;;;;;;;0.90;0.90;;;-1.60;99.90;;;;;;5100797;28;20036;-85
2023/04/03 06:09:30;;;;;;;;;;;-1.60;99.90;;;;;;5103631;27;20054;-86
2023/04/03 06:11:58;;;;;;;0.82;0.82;;;-1.50;99.90;;;;;;5086316;28;20301;-84
2023/04/03 06:14:25;;;;;;;0.80;0.80;;;-1.40;99.90;;;;;;5102725;28;20043;-84
2023/04/03 06:16:52;;;;;;;0.68;0.68;;;-1.30;99.90;;;;;;5103298;28;20047;-86
2023/04/03 06:19:18;;;;;;;0.80;0.80;;;-1.20;99.90;;;;;;5099993;28;20061;-85
2023/04/03 06:21:43;;;;;;;0.70;0.70;;;-1.10;99.90;;;;;;5100950;28;20044;-86
2023/04/03 06:24:12;;;;;;;0.70;0.70;;;-1.00;99.90;;;;;;5083204;28;20496;-86
2023/04/03 06:26:38;;;;;;;0.70;0.70;;;-0.90;99.90;;;;;;5102965;28;20130;-85
2023/04/03 06:29:03;;;;;;;0.80;0.80;;;-0.80;99.90;;;;;;5105778;28;20114;-86
2023/04/03 06:31:29;;;;;;;0.77;0.77;;;-0.70;99.90;;;;;;5085186;28;20035;-84
2023/04/03 06:33:56;;;;;;;0.77;0.77;;;-0.60;99.90;;;;;;5107148;28;20071;-84
2023/04/03 06:36:22;;;;;;;0.70;0.70;;;-0.50;99.90;;;;;;5106314;28;20071;-86
2023/04/03 06:38:48;;;;;;;0.70;0.70;;;-0.30;99.90;;;;;;5122102;27;20482;-86
2023/04/03 06:41:14;;;;;;;0.77;0.77;;;-0.20;99.90;;;;;;5103948;28;20922;-86
2023/04/03 06:43:40;;;;;;;;;;;-0.10;99.90;;;;;;5106735;28;20043;-85
2023/04/03 06:46:06;;;;;;;0.60;0.60;;;0.00;99.90;;;;;;5109789;28;19916;-87
2023/04/03 06:48:31;;;;;;;0.68;0.68;;;0.10;99.90;;;;;;5108123;28;20451;-85
2023/04/03 06:50:57;;;;;;;0.60;0.60;;;0.20;99.90;;;;;;5107196;28;20473;-87
2023/04/03 06:53:23;;;;;;;0.90;0.90;;;0.30;99.90;;;;;;5107279;28;20054;-85
2023/04/03 06:55:49;;;;;;;0.70;0.70;;;0.40;99.90;;;;;;5110277;28;20143;-84
2023/04/03 06:58:17;;;;;;;0.80;0.80;;;0.50;99.90;;;;;;5106658;28;20592;-82
2023/04/03 07:00:42;;;;;;;0.68;0.68;;;0.60;99.90;;;;;;5108614;28;20366;-82
2023/04/03 07:03:08;;;;;;;0.70;0.70;;;0.70;99.90;;;;;;5103854;28;20045;-81
2023/04/03 07:05:34;;;;;;;0.82;0.82;;;0.80;99.90;;;;;;5104298;28;20123;-87
2023/04/03 07:08:00;;;;;;;;;;;1.10;99.90;;;;;;5109765;28;20115;-86
2023/04/03 07:10:26;;;;;;;0.70;0.70;;;1.10;99.90;;;;;;5103628;28;19966;-87
2023/04/03 07:12:52;;;;;;;0.52;0.52;;;1.30;99.90;;;;;;5074763;28;20055;-86
2023/04/03 07:15:18;;;;;;;0.70;0.70;;;1.50;99.90;;;;;;5097887;28;20070;-84
2023/04/03 07:17:46;;;;;;;;;;;1.30;99.90;;;;;;5096282;28;20039;-85
2023/04/03 07:20:15;;;;;;;0.68;0.68;;;1.40;99.90;;;;;;5106334;28;20340;-87
2023/04/03 07:22:40;;;;;;;0.70;0.70;;;1.50;99.90;;;;;;5105109;28;20071;-85
2023/04/03 07:25:07;;;;;;;0.68;0.68;;;1.70;99.90;;;;;;5090910;28;20392;-84
2023/04/03 07:27:33;;;;;;;0.80;0.80;;;1.70;99.90;;;;;;5113256;28;20053;-85
2023/04/03 07:29:59;;;;;;;0.70;0.70;;;2.70;99.90;;;;;;5118882;28;20040;-86
2023/04/03 07:32:25;;;;;;;0.60;0.60;;;1.90;99.90;;;;;;5093902;28;20034;-86
2023/04/03 07:34:51;;;;;;;0.57;0.57;;;2.00;99.90;;;;;;5112088;28;20053;-85
2023/04/03 07:37:17;;;;;;;0.80;0.80;;;2.10;99.90;;;;;;5073304;28;20609;-86
2023/04/03 07:39:44;;;;;;;0.65;0.65;;;2.30;99.90;;;;;;5088104;28;20493;-84
2023/04/03 07:42:12;;;;;;;0.60;0.60;;;2.30;99.90;;;;;;5120897;28;20044;-83
2023/04/03 07:44:37;;;;;;;0.70;0.70;;;2.40;99.90;;;;;;5094424;28;20143;-86
2023/04/03 07:47:05;;;;;;;0.70;0.70;;;2.40;99.90;;;;;;5109674;28;20079;-87
2023/04/03 07:49:31;;;;;;;0.60;0.60;;;2.50;99.90;;;;;;5110385;28;20050;-87
2023/04/03 07:51:57;;;;;;;0.70;0.70;;;2.70;99.90;;;;;;5091799;28;20044;-85
2023/04/03 07:54:22;;;;;;;0.70;0.70;;;2.70;99.90;;;;;;5089643;28;20392;-85
2023/04/03 07:56:48;;;;;;;0.70;0.70;;;2.80;99.90;;;;;;5108435;28;20553;-88
2023/04/03 07:59:13;;;;;;;0.70;0.70;;;3.40;99.90;;;;;;5109261;28;20097;-86
2023/04/03 08:01:39;;;;;;;0.70;0.70;;;2.90;99.90;;;;;;5108828;28;20048;-85
2023/04/03 08:04:06;;;;;;;1.05;1.05;;;2.90;99.90;;;;;;5091584;28;20039;-85
2023/04/03 08:06:34;;;;;;;0.80;0.80;;;3.00;99.90;;;;;;5111767;28;20106;-87
2023/04/03 08:09:00;;;;;;;0.80;0.80;;;3.10;99.90;;;;;;5108724;28;20122;-88
2023/04/03 08:11:26;;;;;;;0.70;0.70;;;3.20;99.90;;;;;;5108205;28;20145;-87
2023/04/03 08:13:53;;;;;;;0.63;0.63;;;3.20;99.90;;;;;;5093030;28;20044;-88
2023/04/03 08:16:22;;;;;;;0.70;0.70;;;3.30;99.90;;;;;;5114067;28;20043;-85
2023/04/03 08:18:48;;;;;;;0.70;0.70;;;3.40;99.90;;;;;;5094563;28;20039;-84
2023/04/03 08:21:13;;;;;;;0.70;0.70;;;3.40;99.90;;;;;;5109190;28;20035;-85
2023/04/03 08:23:43;;;;;;;0.60;0.60;;;3.50;99.90;;;;;;5089179;28;20070;-84
2023/04/03 08:26:15;;;;;;;0.65;0.65;;;3.60;99.90;;;;;;5111735;28;20461;-85
2023/04/03 08:28:41;;;;;;;0.60;0.60;;;3.70;99.90;;;;;;5106963;28;20043;-85
2023/04/03 08:31:13;;;;;;;0.60;0.60;;;3.80;99.90;;;;;;5109688;28;20112;-85
2023/04/03 08:33:39;;;;;;;0.60;0.60;;;3.80;99.90;;;;;;5093755;28;20044;-85
2023/04/03 08:36:07;;;;;;;0.68;0.68;;;3.90;99.90;;;;;;5112084;28;20043;-87
2023/04/03 08:38:36;;;;;;;0.60;0.60;;;4.00;99.90;;;;;;5111712;28;20039;-87
2023/04/03 08:41:16;;;;;;;0.60;0.60;;;4.00;99.90;;;;;;5094022;28;20039;-86
2023/04/03 08:44:03;;;;;;;0.60;0.60;;;4.10;99.90;;;;;;5106636;28;20123;-87
2023/04/03 08:46:49;;;;;;;0.60;0.60;;;4.10;99.90;;;;;;5112117;28;20411;-85
2023/04/03 08:49:37;;;;;;;0.50;0.50;;;4.20;99.90;;;;;;5111503;28;20052;-86
2023/04/03 08:52:10;;;;;;;0.60;0.60;;;4.30;99.90;;;;;;5114495;28;20047;-86
2023/04/03 08:55:01;;;;;;;0.60;0.60;;;4.70;99.90;;;;;;5111960;28;20373;-85
2023/04/03 08:57:38;;;;;;;0.60;0.60;;;4.50;99.90;;;;;;5110719;28;20377;-88
2023/04/03 09:00:17;;;;;;;0.60;0.60;;;4.60;99.90;;;;;;5112034;28;20079;-86
2023/04/03 09:02:46;;;;;;;0.60;0.60;;;4.70;99.90;;;;;;5101353;28;20043;-85
2023/04/03 09:05:19;;;;;;;0.57;0.57;;;4.90;99.90;;;;;;5107929;28;20051;-86
2023/04/03 09:07:53;;;;;;;0.63;0.63;;;5.00;99.90;;;;;;5105345;28;20396;-87
2023/04/03 09:10:27;;;;;;;0.57;0.57;;;5.50;99.90;;;;;;5101399;28;20491;-86
2023/04/03 09:13:05;;;;;;;0.60;0.60;;;5.10;99.90;;;;;;5093826;28;20497;-84
2023/04/03 09:15:31;;;;;;;0.60;0.60;;;5.20;99.90;;;;;;5107642;27;20142;-85
2023/04/03 09:18:15;;;;;;;0.50;0.50;;;5.30;99.90;;;;;;5111588;28;20062;-86
2023/04/03 09:20:56;;;;;;;0.60;0.60;;;5.40;99.90;;;;;;5112029;28;20389;-85
2023/04/03 09:23:36;;;;;;;0.50;0.50;;;5.40;99.90;;;;;;5085530;28;20050;-85
2023/04/03 09:26:13;;;;;;;0.50;0.50;;;5.50;99.90;;;;;;5104811;28;20039;-87
2023/04/03 09:28:42;;;;;;;0.50;0.50;;;5.50;99.90;;;;;;5108435;28;20065;-87
2023/04/03 09:31:30;;;;;;;0.68;0.68;;;5.60;99.90;;;;;;5111682;28;20078;-88
2023/04/03 09:34:03;;;;;;;0.65;0.65;;;5.70;99.90;;;;;;5109696;28;20039;-85
2023/04/03 09:36:47;;;;;;;0.60;0.60;;;5.70;99.90;;;;;;5109056;28;20392;-87
2023/04/03 09:39:19;;;;;;;0.50;0.50;;;5.80;99.90;;;;;;5092673;28;20043;-85
2023/04/03 09:42:00;;;;;;;0.60;0.60;;;5.80;99.90;;;;;;5089391;28;20050;-87
2023/04/03 09:44:31;;;;;;;0.55;0.55;;;5.80;99.90;;;;;;5107181;28;20042;-86
2023/04/03 09:47:27;;;;;;;0.60;0.60;;;5.80;99.90;;;;;;5109104;28;20089;-84
2023/04/03 09:50:12;;;;;;;0.50;0.50;;;5.80;99.90;;;;;;5092050;28;20502;-87
2023/04/03 09:52:40;;;;;;;0.57;0.57;;;5.90;99.90;;;;;;5106592;28;20115;-84
2023/04/03 09:55:29;;;;;;;0.50;0.50;;;6.00;99.90;;;;;;5105147;28;20577;-86
2023/04/03 09:58:25;;;;;;;0.57;0.57;;;6.10;99.90;;;;;;5109070;28;20123;-87
2023/04/03 10:00:56;;;;;;;0.60;0.60;;;6.20;99.90;;;;;;5104810;28;20501;-84
2023/04/03 10:03:29;;;;;;;0.63;0.63;;;6.30;99.90;;;;;;5104896;28;20047;-85
2023/04/03 10:05:57;;;;;;;0.52;0.52;;;6.40;99.90;;;;;;5092312;28;20047;-86
2023/04/03 10:08:26;;;;;;;0.50;0.50;;;6.40;99.90;;;;;;5103414;28;20048;-86
2023/04/03 10:11:16;;;;;;;0.60;0.60;;;6.50;99.90;;;;;;5107702;28;20039;-86
2023/04/03 10:13:56;;;;;;;0.50;0.50;;;6.70;99.90;;;;;;5108329;28;20083;-86
2023/04/03 10:16:52;;;;;;;0.40;0.40;;;6.70;99.90;;;;;;5108240;28;20054;-86
2023/04/03 10:19:56;;;;;;;0.50;0.50;;;6.80;99.90;;;;;;5078900;28;20146;-85
2023/04/03 10:22:45;;;;;;;0.50;0.50;;;6.90;99.90;;;;;;5105129;28;20480;-86
2023/04/03 10:25:20;;;;;;;0.50;0.50;;;7.00;99.90;;;;;;5121869;27;20058;-85
2023/04/03 10:28:03;;;;;;;0.47;0.47;;;7.10;99.90;;;;;;5101695;28;20149;-85
2023/04/03 10:30:43;;;;;;;0.40;0.40;;;7.20;99.90;;;;;;5107850;28;20027;-84
2023/04/03 10:33:31;;;;;;;0.40;0.40;;;7.20;99.90;;;;;;5107967;28;20494;-85
2023/04/03 10:36:15;;;;;;;0.55;0.55;;;7.30;99.90;;;;;;5106160;28;20040;-86
2023/04/03 10:39:11;;;;;;;0.50;0.50;;;7.40;99.90;;;;;;5106056;28;20142;-85
2023/04/03 10:41:52;;;;;;;0.50;0.50;;;7.40;99.90;;;;;;5107688;28;20108;-87
2023/04/03 10:44:39;;;;;;;0.50;0.50;;;7.40;99.90;;;;;;5102968;28;20094;-87
2023/04/03 10:47:32;;;;;;;0.60;0.60;;;7.50;99.90;;;;;;5106738;28;20039;-85
2023/04/03 10:50:30;;;;;;;0.40;0.40;;;7.60;99.90;;;;;;5085968;28;20050;-86
2023/04/03 10:53:22;;;;;;;0.65;0.65;;;7.60;99.90;;;;;;5081077;28;20050;-85
2023/04/03 10:56:02;;;;;;;0.55;0.55;;;7.50;99.90;;;;;;5113940;28;20044;-84
2023/04/03 10:58:43;;;;;;;0.35;0.35;;;7.60;99.90;;;;;;5091715;28;20040;-85
2023/04/03 11:01:14;;;;;;;0.50;0.50;;;7.70;99.90;;;;;;5107030;28;20058;-85
2023/04/03 11:03:47;;;;;;;0.50;0.50;;;7.70;95.20;;;;;;5122611;27;20389;-86
2023/04/03 11:06:15;;;;;;;0.40;0.40;;;7.70;99.90;;;;;;5108510;28;20088;-86
2023/04/03 11:08:59;;;;;;;0.50;0.50;;;7.70;99.90;;;;;;5105739;28;20122;-86
2023/04/03 11:11:29;;;;;;;0.40;0.40;;;7.90;99.90;;;;;;5089124;28;20504;-87
2023/04/03 11:14:05;;;;;;;0.30;0.30;;;8.00;99.90;;;;;;5124256;27;20101;-84
2023/04/03 11:16:42;;;;;;;0.47;0.47;;;8.10;99.90;;;;;;5109097;28;20130;-85
2023/04/03 11:19:14;;;;;;;;;;;8.20;99.90;;;;;;5107162;28;20043;-85
2023/04/03 11:22:03;;;;;;;0.50;0.50;;;8.30;99.90;;;;;;5106255;28;20300;-85
2023/04/03 11:24:32;;;;;;;0.50;0.50;;;8.40;99.90;;;;;;5107531;28;20042;-83
2023/04/03 11:27:03;;;;;;;0.40;0.40;;;8.50;99.90;;;;;;5105785;28;20031;-85
2023/04/03 11:29:36;;;;;;;0.50;0.50;;;8.60;99.90;;;;;;5084649;28;20128;-87
2023/04/03 11:32:26;;;;;;;0.47;0.47;;;8.60;99.90;;;;;;5109217;28;20063;-85
2023/04/03 11:34:58;;;;;;;0.40;0.40;;;8.70;99.90;;;;;;5093094;28;20067;-85
2023/04/03 11:37:46;;;;;;;0.60;0.60;;;8.70;99.90;;;;;;5106892;28;20052;-85
2023/04/03 11:40:15;;;;;;;0.50;0.50;;;8.70;99.90;;;;;;5106236;28;20055;-86
2023/04/03 11:42:45;;;;;;;0.40;0.40;;;8.80;99.90;;;;;;5089619;28;20079;-85
2023/04/03 11:45:24;;;;;;;0.40;0.40;;;8.80;99.90;;;;;;5101092;28;20050;-85
2023/04/03 11:48:00;;;;;;;0.45;0.45;;;8.90;99.90;;;;;;5090984;28;20047;-86
2023/04/03 11:50:38;;;;;;;0.45;0.45;;;8.90;99.90;;;;;;5100894;28;20506;-85
2023/04/03 11:53:32;;;;;;;3.75;0.98;;;8.90;99.90;;;;;;5089631;28;20493;-84
2023/04/03 11:56:08;;;;;;;0.40;0.40;;;8.90;99.90;;;;;;5090695;28;20047;-85
2023/04/03 11:58:34;;;;;;;0.50;0.50;;;9.00;99.90;;;;;;5091255;28;20040;-85
2023/04/03 12:01:04;;;;;;;;;;;9.10;99.90;;;;;;5102582;28;20046;-86
2023/04/03 12:03:33;;;;;;;0.50;0.50;;;9.10;96.40;;;;;;5105413;28;20023;-86
2023/04/03 12:06:05;;;;;;;0.50;0.50;;;9.10;99.90;;;;;;5107458;28;20039;-86
2023/04/03 12:08:52;;;;;;;0.47;0.47;;;9.10;96.10;;;;;;5087738;28;20325;-86
2023/04/03 12:11:30;;;;;;;0.40;0.40;;;9.10;99.90;;;;;;5105259;28;20035;-85
2023/04/03 12:13:55;;;;;;;0.50;0.50;;;9.20;99.80;;;;;;5100109;28;20151;-87
2023/04/03 12:16:29;;;;;;;0.40;0.40;;;9.30;99.90;;;;;;5107677;28;20126;-85
2023/04/03 12:19:24;;;;;;;0.40;0.40;;;9.50;99.90;;;;;;5108453;28;20055;-85
2023/04/03 12:21:58;;;;;;;0.40;0.40;;;9.60;99.90;;;;;;5090103;28;20050;-86
2023/04/03 12:24:31;;;;;;;0.47;0.47;;;9.70;99.90;;;;;;5093060;28;20050;-85
2023/04/03 12:26:58;;;;;;;0.40;0.40;;;9.60;99.00;;;;;;5108403;28;20500;-84
2023/04/03 12:29:55;;;;;;;0.40;0.40;;;9.60;99.90;;;;;;5091631;28;20472;-84
2023/04/03 12:32:43;;;;;;;;;;;9.70;98.70;;;;;;5108308;28;20046;-85
2023/04/03 12:35:26;;;;;;;0.40;0.40;;;9.80;99.90;;;;;;5088664;28;20368;-85
2023/04/03 12:38:17;;;;;;;0.40;0.40;;;9.90;99.50;;;;;;5097229;28;20056;-87
2023/04/03 12:40:42;;;;;;;0.30;0.30;;;9.90;98.20;;;;;;5102598;28;20047;-85
2023/04/03 12:43:28;;;;;;;0.50;0.50;;;9.90;99.90;;;;;;5109419;28;20437;-84
2023/04/03 12:46:03;;;;;;;0.50;0.50;;;9.90;94.00;;;;;;5111101;28;20377;-83
2023/04/03 12:48:33;;;;;;;0.43;0.43;;;10.00;98.60;;;;;;5109664;28;20031;-86
2023/04/03 12:51:00;;;;;;;0.50;0.50;;;10.00;94.20;;;;;;5095800;28;20464;-83
2023/04/03 12:53:35;;;;;;;0.40;0.40;;;10.10;99.90;;;;;;5109536;28;20040;-83
2023/04/03 12:56:20;;;;;;;0.45;0.45;;;10.10;94.90;;;;;;5122245;28;20040;-84
2023/04/03 12:58:46;;;;;;;0.43;0.43;;;10.30;99.90;;;;;;5115805;28;20043;-84
2023/04/03 13:01:14;;;;;;;;;;;10.40;96.40;;;;;;5109992;28;20130;-84
2023/04/03 13:03:46;;;;;;;0.40;0.40;;;10.40;97.90;;;;;;5090984;28;20437;-86
2023/04/03 13:06:43;;;;;;;0.95;0.95;;;10.50;98.30;;;;;;5109019;28;20491;-84
2023/04/03 13:09:27;;;;;;;0.35;0.35;;;10.50;95.70;;;;;;5091570;28;20430;-87
2023/04/03 13:11:58;;;;;;;0.30;0.30;;;10.50;97.10;;;;;;5108814;28;20184;-85
2023/04/03 13:14:28;;;;;;;0.40;0.40;;;10.60;86.50;;;;;;5123412;27;20103;-85
2023/04/03 13:16:57;;;;;;;0.40;0.40;;;10.70;94.60;;;;;;5092411;28;20369;-85
2023/04/03 13:19:26;;;;;;;0.30;0.30;;;10.90;97.90;;;;;;5090054;28;20054;-85
2023/04/03 13:22:00;;;;;;;0.30;0.30;;;11.20;96.80;;;;;;5110301;28;20043;-86